createdAt,value
2023-06-30T00:02:48.530Z,5.75
2023-06-30T00:05:37.704Z,5.93
2023-06-30T00:08:28.473Z,5.95
2023-06-30T00:11:24.986Z,5.30
2023-06-30T00:14:13.894Z,5.90
2023-06-30T00:17:02.705Z,5.55
2023-06-30T00:19:52.315Z,5.03
2023-06-30T00:22:41.418Z,5.03
2023-06-30T00:25:31.725Z,5.30
2023-06-30T00:28:21.059Z,5.32
2023-06-30T00:31:10.195Z,5.78
2023-06-30T00:33:59.392Z,5.85
2023-06-30T00:36:48.113Z,5.25
2023-06-30T00:39:37.058Z,5.63
2023-06-30T00:42:27.565Z,4.90
2023-06-30T00:45:16.837Z,5.43
2023-06-30T00:48:06.079Z,5.20
2023-06-30T00:50:55.588Z,5.30
2023-06-30T00:53:44.518Z,5.38
2023-06-30T00:56:33.537Z,6.00
2023-06-30T00:59:23.830Z,5.45
2023-06-30T01:02:16.260Z,5.32
2023-06-30T01:05:12.111Z,5.90
2023-06-30T01:08:09.964Z,5.70
2023-06-30T01:10:59.907Z,5.93
2023-06-30T01:13:50.735Z,5.88
2023-06-30T01:16:44.241Z,5.88
2023-06-30T01:19:40.113Z,5.80
2023-06-30T01:22:49.564Z,5.88
2023-06-30T01:25:38.428Z,5.50
2023-06-30T01:28:30.250Z,5.40
2023-06-30T01:31:19.842Z,5.93
2023-06-30T01:34:10.163Z,5.55
2023-06-30T01:36:59.085Z,5.70
2023-06-30T01:39:50.543Z,5.82
2023-06-30T01:42:40.686Z,5.97
2023-06-30T01:45:31.154Z,6.13
2023-06-30T01:48:20.737Z,5.65
2023-06-30T01:51:16.628Z,5.82
2023-06-30T01:54:06.140Z,5.65
2023-06-30T01:56:54.945Z,5.75
2023-06-30T01:59:43.774Z,5.63
2023-06-30T02:02:32.547Z,5.13
2023-06-30T02:05:21.734Z,5.60
2023-06-30T02:08:11.992Z,5.82
2023-06-30T02:11:01.138Z,6.03
2023-06-30T02:13:53.033Z,6.18
2023-06-30T02:16:41.919Z,5.93
2023-06-30T02:19:31.298Z,5.55
2023-06-30T02:22:20.087Z,6.45
2023-06-30T02:25:10.462Z,5.80
2023-06-30T02:27:59.120Z,6.43
2023-06-30T02:30:48.133Z,6.50
2023-06-30T02:33:37.130Z,6.60
2023-06-30T02:36:26.046Z,6.65
2023-06-30T02:39:14.871Z,6.50
2023-06-30T02:42:05.555Z,7.05
2023-06-30T02:44:54.681Z,6.47
2023-06-30T02:47:43.936Z,6.47
2023-06-30T02:50:34.250Z,6.10
2023-06-30T02:53:23.741Z,6.70
2023-06-30T02:56:12.817Z,6.53
2023-06-30T02:59:03.587Z,7.00
2023-06-30T03:01:53.041Z,6.93
2023-06-30T03:04:41.973Z,6.47
2023-06-30T03:07:31.379Z,6.85
2023-06-30T03:10:20.571Z,6.55
2023-06-30T03:13:09.779Z,6.50
2023-06-30T03:16:00.494Z,7.10
2023-06-30T03:18:54.386Z,6.40
2023-06-30T03:21:43.468Z,7.55
2023-06-30T03:24:32.391Z,7.05
2023-06-30T03:27:22.386Z,7.10
2023-06-30T03:30:12.358Z,7.20
2023-06-30T03:33:07.531Z,7.13
2023-06-30T03:35:56.418Z,7.05
2023-06-30T03:38:46.400Z,7.95
2023-06-30T03:41:36.258Z,7.13
2023-06-30T03:44:25.016Z,7.63
2023-06-30T03:47:13.994Z,7.90
2023-06-30T03:50:04.790Z,7.50
2023-06-30T03:52:53.622Z,7.70
2023-06-30T03:55:43.129Z,7.90
2023-06-30T03:58:32.682Z,7.55
2023-06-30T04:01:22.716Z,8.02
2023-06-30T04:04:11.854Z,8.43
2023-06-30T04:07:02.693Z,8.10
2023-06-30T04:09:51.489Z,7.90
2023-06-30T04:12:40.274Z,7.95
2023-06-30T04:15:29.111Z,7.93
2023-06-30T04:18:18.015Z,8.40
2023-06-30T04:21:06.891Z,8.55
2023-06-30T04:23:57.322Z,7.90
2023-06-30T04:26:46.267Z,10.45
2023-06-30T04:29:35.439Z,8.65
2023-06-30T04:32:24.246Z,8.15
2023-06-30T04:35:13.145Z,8.00
2023-06-30T04:38:02.221Z,8.75
2023-06-30T04:40:52.821Z,8.30
2023-06-30T04:43:42.672Z,8.32
2023-06-30T04:46:31.463Z,8.05
2023-06-30T04:49:20.980Z,8.63
2023-06-30T04:52:10.363Z,8.10
2023-06-30T04:54:59.474Z,8.32
2023-06-30T04:57:50.601Z,8.40
2023-06-30T05:00:39.702Z,8.52
2023-06-30T05:03:28.715Z,8.02
2023-06-30T05:06:17.826Z,7.68
2023-06-30T05:09:06.564Z,7.93
2023-06-30T05:11:55.454Z,8.25
2023-06-30T05:14:45.607Z,7.97
2023-06-30T05:17:34.618Z,7.70
2023-06-30T05:20:23.888Z,6.95
2023-06-30T05:23:12.738Z,7.13
2023-06-30T05:26:01.632Z,7.60
2023-06-30T05:29:04.088Z,7.35
2023-06-30T05:31:55.498Z,7.63
2023-06-30T05:34:44.928Z,7.38
2023-06-30T05:37:33.989Z,7.30
2023-06-30T05:40:22.891Z,7.50
2023-06-30T05:43:12.048Z,7.45
2023-06-30T05:46:01.078Z,7.50
2023-06-30T05:48:52.003Z,8.15
2023-06-30T05:51:41.065Z,7.07
2023-06-30T05:54:29.919Z,7.03
2023-06-30T05:57:18.705Z,6.57
2023-06-30T06:00:09.156Z,7.20
2023-06-30T06:03:02.949Z,6.90
2023-06-30T06:05:53.879Z,6.72
2023-06-30T06:08:45.162Z,6.57
2023-06-30T06:11:34.120Z,6.60
2023-06-30T06:14:22.922Z,6.40
2023-06-30T06:17:12.090Z,6.45
2023-06-30T06:20:01.051Z,6.60
2023-06-30T06:22:51.113Z,5.53
2023-06-30T06:25:45.355Z,5.82
2023-06-30T06:28:34.867Z,5.70
2023-06-30T06:31:26.046Z,5.70
2023-06-30T06:34:14.988Z,5.97
2023-06-30T06:37:04.299Z,5.60
2023-06-30T06:39:54.504Z,5.50
2023-06-30T06:42:43.335Z,5.13
2023-06-30T06:45:32.291Z,5.28
2023-06-30T06:48:22.911Z,5.25
2023-06-30T06:51:12.008Z,4.82
2023-06-30T06:54:01.158Z,5.10
2023-06-30T06:56:53.037Z,5.10
2023-06-30T06:59:41.744Z,4.32
2023-06-30T07:02:31.087Z,4.60
2023-06-30T07:05:20.304Z,4.50
2023-06-30T07:08:09.705Z,4.47
2023-06-30T07:10:58.754Z,3.78
2023-06-30T07:13:49.485Z,4.63
2023-06-30T07:16:38.258Z,3.50
2023-06-30T07:19:27.153Z,3.80
2023-06-30T07:22:16.357Z,3.72
2023-06-30T07:25:07.777Z,4.50
2023-06-30T07:27:58.085Z,2.90
2023-06-30T07:30:49.668Z,3.55
2023-06-30T07:33:38.477Z,3.45
2023-06-30T07:36:27.229Z,3.90
2023-06-30T07:39:16.439Z,3.78
2023-06-30T07:42:05.933Z,3.85
2023-06-30T07:44:56.379Z,4.15
2023-06-30T07:47:49.734Z,3.67
2023-06-30T07:50:39.283Z,3.53
2023-06-30T07:53:29.269Z,3.55
2023-06-30T07:56:17.983Z,3.30
2023-06-30T07:59:07.105Z,3.03
2023-06-30T08:01:55.987Z,2.88
2023-06-30T08:04:46.368Z,2.97
2023-06-30T08:07:49.157Z,3.40
2023-06-30T08:10:40.851Z,3.30
2023-06-30T08:13:31.277Z,2.90
2023-06-30T08:16:20.307Z,3.72
2023-06-30T08:19:09.181Z,3.05
2023-06-30T08:22:19.894Z,4.10
2023-06-30T08:25:09.393Z,2.85
2023-06-30T08:27:58.775Z,2.88
2023-06-30T08:30:47.948Z,2.80
2023-06-30T08:33:40.524Z,3.20
2023-06-30T08:36:29.956Z,2.60
2023-06-30T08:39:20.792Z,2.75
2023-06-30T08:42:13.767Z,2.80
2023-06-30T08:45:04.469Z,2.90
2023-06-30T08:47:54.738Z,3.15
2023-06-30T08:50:45.278Z,3.20
2023-06-30T08:53:34.764Z,3.20
2023-06-30T08:56:27.674Z,3.17
2023-06-30T08:59:16.554Z,3.13
2023-06-30T09:02:05.744Z,2.83
2023-06-30T09:04:55.336Z,3.05
2023-06-30T09:07:49.579Z,3.38
2023-06-30T09:10:40.282Z,3.25
2023-06-30T09:13:31.007Z,3.38
2023-06-30T09:16:20.498Z,2.60
2023-06-30T09:19:09.557Z,2.75
2023-06-30T09:21:59.122Z,2.92
2023-06-30T09:24:48.083Z,2.60
2023-06-30T09:27:37.119Z,2.70
2023-06-30T09:30:35.032Z,2.95
2023-06-30T09:33:25.059Z,3.08
2023-06-30T09:36:19.005Z,3.28
2023-06-30T09:39:10.041Z,3.22
2023-06-30T09:41:58.831Z,3.40
2023-06-30T09:44:49.910Z,2.58
2023-06-30T09:47:40.285Z,2.92
2023-06-30T09:50:32.202Z,2.92
2023-06-30T09:53:21.549Z,2.90
2023-06-30T09:56:11.480Z,2.80
2023-06-30T09:59:00.688Z,2.92
2023-06-30T10:01:54.180Z,2.67
2023-06-30T10:04:48.392Z,2.65
2023-06-30T10:07:37.512Z,2.30
2023-06-30T10:10:27.130Z,2.55
2023-06-30T10:13:17.773Z,2.42
2023-06-30T10:16:08.893Z,2.60
2023-06-30T10:19:01.509Z,2.45
2023-06-30T10:21:55.696Z,2.75
2023-06-30T10:24:48.633Z,2.47
2023-06-30T10:27:38.545Z,2.58
2023-06-30T10:30:27.806Z,2.80
2023-06-30T10:33:16.748Z,2.50
2023-06-30T10:36:07.453Z,2.30
2023-06-30T10:38:58.009Z,2.78
2023-06-30T10:41:51.309Z,2.17
2023-06-30T10:44:40.955Z,2.30
2023-06-30T10:47:30.387Z,2.70
2023-06-30T10:50:20.292Z,3.20
2023-06-30T10:53:09.246Z,2.60
2023-06-30T10:55:59.541Z,2.22
2023-06-30T10:58:48.782Z,2.80
2023-06-30T11:01:39.794Z,2.30
2023-06-30T11:04:39.109Z,2.20
2023-06-30T11:07:29.441Z,2.30
2023-06-30T11:10:36.881Z,2.33
2023-06-30T11:13:39.308Z,2.60
2023-06-30T11:16:31.091Z,2.40
2023-06-30T11:19:25.858Z,4.13
2023-06-30T11:22:24.205Z,2.50
2023-06-30T11:25:13.303Z,3.47
2023-06-30T11:28:05.900Z,2.28
2023-06-30T11:30:56.155Z,2.92
2023-06-30T11:33:46.670Z,2.80
2023-06-30T11:36:35.783Z,2.53
2023-06-30T11:39:24.761Z,2.55
2023-06-30T11:42:14.773Z,2.50
2023-06-30T11:45:03.553Z,2.58
2023-06-30T11:47:55.549Z,2.70
2023-06-30T11:50:44.762Z,2.67
2023-06-30T11:53:34.428Z,2.80
2023-06-30T11:56:23.971Z,3.00
2023-06-30T11:59:13.069Z,2.58
2023-06-30T12:02:03.074Z,2.80
2023-06-30T12:04:53.472Z,2.83
2023-06-30T12:07:43.979Z,3.20
2023-06-30T12:10:40.215Z,2.40
2023-06-30T12:13:30.323Z,2.78
2023-06-30T12:16:20.387Z,2.40
2023-06-30T12:19:10.043Z,2.25
2023-06-30T12:22:01.378Z,2.50
2023-06-30T12:24:56.738Z,2.40
2023-06-30T12:27:45.801Z,2.25
2023-06-30T12:30:35.043Z,2.33
2023-06-30T12:33:24.752Z,2.55
2023-06-30T12:36:13.538Z,2.58
2023-06-30T12:39:04.262Z,2.67
2023-06-30T12:41:53.170Z,2.40
2023-06-30T12:44:41.990Z,3.25
2023-06-30T12:47:31.144Z,2.33
2023-06-30T12:50:20.903Z,2.63
2023-06-30T12:53:09.757Z,2.40
2023-06-30T12:55:59.981Z,2.50
2023-06-30T12:58:48.902Z,2.63
2023-06-30T13:01:37.800Z,2.70
2023-06-30T13:04:28.398Z,3.03
2023-06-30T13:07:17.887Z,2.85
2023-06-30T13:10:07.904Z,2.75
2023-06-30T13:12:59.823Z,2.70
2023-06-30T13:15:49.161Z,3.17
2023-06-30T13:18:38.198Z,3.50
2023-06-30T13:21:27.048Z,3.47
2023-06-30T13:24:15.846Z,3.20
2023-06-30T13:27:04.696Z,2.78
2023-06-30T13:29:56.385Z,3.28
2023-06-30T13:32:45.166Z,3.30
2023-06-30T13:35:34.948Z,3.00
2023-06-30T13:38:24.030Z,3.58
2023-06-30T13:41:12.831Z,3.47
2023-06-30T13:44:01.588Z,3.40
2023-06-30T13:46:51.689Z,4.15
2023-06-30T13:49:40.454Z,3.50
2023-06-30T13:52:29.376Z,3.67
2023-06-30T13:55:18.211Z,3.50
2023-06-30T13:58:07.120Z,3.40
2023-06-30T14:00:55.819Z,3.75
2023-06-30T14:03:49.941Z,3.40
2023-06-30T14:06:39.472Z,3.45
2023-06-30T14:09:28.643Z,3.60
2023-06-30T14:12:19.293Z,3.25
2023-06-30T14:15:09.494Z,3.25
2023-06-30T14:17:58.482Z,3.47
2023-06-30T14:20:49.594Z,3.50
2023-06-30T14:23:38.767Z,3.42
2023-06-30T14:26:28.061Z,4.05
2023-06-30T14:29:17.223Z,3.40
2023-06-30T14:32:06.986Z,3.92
2023-06-30T14:34:56.322Z,3.53
2023-06-30T14:37:46.760Z,3.53
2023-06-30T14:40:35.670Z,3.65
2023-06-30T14:43:25.338Z,3.38
2023-06-30T14:46:14.176Z,3.53
2023-06-30T14:49:04.109Z,3.50
2023-06-30T14:51:53.345Z,3.83
2023-06-30T14:54:43.484Z,3.85
2023-06-30T14:57:32.521Z,3.50
2023-06-30T15:00:21.340Z,3.60
2023-06-30T15:03:10.182Z,3.45
2023-06-30T15:06:02.696Z,3.53
2023-06-30T15:08:51.410Z,4.45
2023-06-30T15:11:41.532Z,3.80
2023-06-30T15:14:30.488Z,3.40
2023-06-30T15:17:20.183Z,4.10
2023-06-30T15:20:09.961Z,3.40
2023-06-30T15:22:58.919Z,3.75
2023-06-30T15:25:48.255Z,3.72
2023-06-30T15:28:39.281Z,4.07
2023-06-30T15:34:25.086Z,3.90
2023-06-30T15:37:14.567Z,4.40
2023-06-30T15:40:04.223Z,4.10
2023-06-30T15:42:52.990Z,3.65
2023-06-30T15:45:43.474Z,4.50
2023-06-30T15:48:32.307Z,4.00
2023-06-30T15:51:21.502Z,4.03
2023-06-30T15:54:10.740Z,3.78
2023-06-30T15:56:59.585Z,4.72
2023-06-30T15:59:48.364Z,4.43
2023-06-30T16:02:39.330Z,3.38
2023-06-30T16:05:28.457Z,4.15
2023-06-30T16:08:17.272Z,3.80
2023-06-30T16:11:05.941Z,5.30
2023-06-30T16:13:54.731Z,3.15
2023-06-30T16:16:43.664Z,3.40
2023-06-30T16:19:34.229Z,3.30
2023-06-30T16:22:23.000Z,2.80
2023-06-30T16:25:12.138Z,2.63
2023-06-30T16:28:01.073Z,3.10
2023-06-30T16:30:49.953Z,3.40
2023-06-30T16:33:38.756Z,3.00
2023-06-30T16:36:32.802Z,3.50
2023-06-30T16:39:21.525Z,3.60
2023-06-30T16:42:10.513Z,3.58
2023-06-30T16:44:59.403Z,3.67
2023-06-30T16:47:48.387Z,3.38
2023-06-30T16:50:37.323Z,3.42
2023-06-30T16:53:28.127Z,5.43
2023-06-30T16:56:16.971Z,3.78
2023-06-30T16:59:06.126Z,3.65
2023-06-30T17:01:56.312Z,3.83
2023-06-30T17:04:45.954Z,4.97
2023-06-30T17:07:35.005Z,3.53
2023-06-30T17:10:25.533Z,4.50
2023-06-30T17:13:14.365Z,4.45
2023-06-30T17:16:03.628Z,5.38
2023-06-30T17:18:52.688Z,4.00
2023-06-30T17:21:41.821Z,3.33
2023-06-30T17:24:30.951Z,4.32
2023-06-30T17:27:21.586Z,3.30
2023-06-30T17:30:12.082Z,3.92
2023-06-30T17:33:01.218Z,3.90
2023-06-30T17:35:50.077Z,3.42
2023-06-30T17:38:38.790Z,4.72
2023-06-30T17:41:27.863Z,4.60
2023-06-30T17:44:17.958Z,4.15
2023-06-30T17:47:07.457Z,4.30
2023-06-30T17:49:56.241Z,5.80
2023-06-30T17:52:45.265Z,6.00
2023-06-30T17:55:34.320Z,14.13
2023-06-30T17:58:23.140Z,6.32
2023-06-30T18:01:13.655Z,5.22
2023-06-30T18:04:02.466Z,5.38
2023-06-30T18:07:03.878Z,5.18
2023-06-30T18:09:52.747Z,5.72
2023-06-30T18:12:42.186Z,4.75
2023-06-30T18:15:32.348Z,4.70
2023-06-30T18:18:22.519Z,4.93
2023-06-30T18:21:13.077Z,4.15
2023-06-30T18:24:02.121Z,4.05
2023-06-30T18:26:51.623Z,4.50
2023-06-30T18:29:40.701Z,4.20
2023-06-30T18:32:29.820Z,3.60
2023-06-30T18:35:20.018Z,4.30
2023-06-30T18:38:08.851Z,4.40
2023-06-30T18:40:57.803Z,4.72
2023-06-30T18:43:46.564Z,4.80
2023-06-30T18:46:36.224Z,4.70
2023-06-30T18:49:25.833Z,4.47
2023-06-30T18:52:16.249Z,4.63
2023-06-30T18:55:05.398Z,4.63
2023-06-30T18:57:54.180Z,4.32
2023-06-30T19:00:43.696Z,4.60
2023-06-30T19:03:32.753Z,4.57
2023-06-30T19:06:22.105Z,4.78
2023-06-30T19:09:13.089Z,4.03
2023-06-30T19:12:02.090Z,4.18
2023-06-30T19:14:50.937Z,4.20
2023-06-30T19:17:39.882Z,4.05
2023-06-30T19:20:29.309Z,4.63
2023-06-30T19:23:19.314Z,3.95
2023-06-30T19:26:12.848Z,4.30
2023-06-30T19:29:02.036Z,4.38
2023-06-30T19:31:50.694Z,3.90
2023-06-30T19:34:39.842Z,4.25
2023-06-30T19:37:28.548Z,3.92
2023-06-30T19:40:18.046Z,4.05
2023-06-30T19:43:08.138Z,3.75
2023-06-30T19:45:56.950Z,4.13
2023-06-30T19:48:45.676Z,4.07
2023-06-30T19:51:34.454Z,4.35
2023-06-30T19:54:23.201Z,4.40
2023-06-30T19:57:11.949Z,4.20
2023-06-30T20:00:02.677Z,4.35
2023-06-30T20:03:01.537Z,4.65
2023-06-30T20:05:50.576Z,4.70
2023-06-30T20:08:39.396Z,4.40
2023-06-30T20:11:28.162Z,4.38
2023-06-30T20:14:16.981Z,3.75
2023-06-30T20:17:09.062Z,4.28
2023-06-30T20:19:58.093Z,4.18
2023-06-30T20:22:47.967Z,4.32
2023-06-30T20:25:36.912Z,4.38
2023-06-30T20:28:25.897Z,4.57
2023-06-30T20:31:15.407Z,4.82
2023-06-30T20:34:05.884Z,4.75
2023-06-30T20:36:54.717Z,6.15
2023-06-30T20:39:43.694Z,5.07
2023-06-30T20:42:32.852Z,5.05
2023-06-30T20:45:21.749Z,4.80
2023-06-30T20:48:10.813Z,4.60
2023-06-30T20:51:01.227Z,4.80
2023-06-30T20:53:50.098Z,4.80
2023-06-30T20:56:39.067Z,4.60
2023-06-30T20:59:28.640Z,4.55
2023-06-30T21:02:17.704Z,4.82
2023-06-30T21:05:07.267Z,4.80
2023-06-30T21:07:57.474Z,4.53
2023-06-30T21:10:46.554Z,5.38
2023-06-30T21:13:35.582Z,4.70
2023-06-30T21:16:24.517Z,5.00
2023-06-30T21:19:14.027Z,5.15
2023-06-30T21:22:03.286Z,5.07
2023-06-30T21:24:53.596Z,5.07
2023-06-30T21:27:42.325Z,4.60
2023-06-30T21:30:31.225Z,4.80
2023-06-30T21:33:20.016Z,5.22
2023-06-30T21:36:08.870Z,5.40
2023-06-30T21:38:57.754Z,5.68
2023-06-30T21:41:48.347Z,6.53
2023-06-30T21:44:37.085Z,6.05
2023-06-30T21:47:26.249Z,6.28
2023-06-30T21:50:14.979Z,7.00
2023-06-30T21:53:04.354Z,6.47
2023-06-30T21:55:53.588Z,6.95
2023-06-30T21:58:43.767Z,6.95
2023-06-30T22:01:40.661Z,7.45
2023-06-30T22:04:30.385Z,6.75
2023-06-30T22:07:19.743Z,7.65
2023-06-30T22:10:09.934Z,7.35
2023-06-30T22:12:58.701Z,8.65
2023-06-30T22:15:49.211Z,9.15
2023-06-30T22:18:38.007Z,9.50
2023-06-30T22:21:27.088Z,9.90
2023-06-30T22:24:15.845Z,10.55
2023-06-30T22:27:04.866Z,10.52
2023-06-30T22:29:53.622Z,10.38
2023-06-30T22:32:43.893Z,10.80
2023-06-30T22:35:32.701Z,11.52
2023-06-30T22:38:21.382Z,11.18
2023-06-30T22:41:10.105Z,11.10
2023-06-30T22:43:59.284Z,11.55
2023-06-30T22:46:48.270Z,11.45
2023-06-30T22:49:38.926Z,10.98
2023-06-30T22:52:27.763Z,10.82
2023-06-30T22:55:16.557Z,11.65
2023-06-30T22:58:05.510Z,10.77
2023-06-30T23:00:54.404Z,11.13
2023-06-30T23:03:43.191Z,10.23
2023-06-30T23:06:33.698Z,10.82
2023-06-30T23:09:22.962Z,10.68
2023-06-30T23:12:11.690Z,11.00
2023-06-30T23:15:00.591Z,10.52
2023-06-30T23:17:49.923Z,10.70
2023-06-30T23:20:38.886Z,11.13
2023-06-30T23:23:29.378Z,10.85
2023-06-30T23:26:23.028Z,10.48
2023-06-30T23:29:11.863Z,11.05
2023-06-30T23:32:06.899Z,11.18
2023-06-30T23:34:55.730Z,11.30
2023-06-30T23:37:45.233Z,11.77
2023-06-30T23:40:35.798Z,11.40
2023-06-30T23:43:24.806Z,11.73
2023-06-30T23:46:19.468Z,11.65
2023-06-30T23:49:08.469Z,11.40
2023-06-30T23:51:57.415Z,11.82
2023-06-30T23:54:46.121Z,11.20
2023-06-30T23:57:36.226Z,11.70
